Terminal Aerodrome Forecast
Issued by NWS

Home | Current Version | Previous Version | Text Only | Print | Product List | Glossary On
Versions: 1 2 3 4 5 6 7 8 9 10 11 12
000
FTUS42 KTAE 241100
TAFDHN
TAF
KDHN 241120Z 2412/2512 00000KT P6SM SCT200
     FM241500 02005KT P6SM SKC
     FM250100 34003KT P6SM SKC=

USA.gov is the U.S. government's official web portal to all federal, state and local government web resources and services.